createdAt,value
2023-02-03T00:02:12.689Z,6.27
2023-02-03T00:04:40.836Z,5.77
2023-02-03T00:07:12.020Z,6.53
2023-02-03T00:09:41.363Z,6.83
2023-02-03T00:12:11.393Z,6.53
2023-02-03T00:14:39.498Z,7.07
2023-02-03T00:17:11.779Z,5.07
2023-02-03T00:19:44.352Z,5.77
2023-02-03T00:22:14.560Z,4.77
2023-02-03T00:24:46.001Z,5.50
2023-02-03T00:27:15.361Z,4.40
2023-02-03T00:29:45.241Z,3.97
2023-02-03T00:32:14.496Z,5.47
2023-02-03T00:34:42.650Z,5.27
2023-02-03T00:37:15.867Z,4.03
2023-02-03T00:39:44.047Z,5.30
2023-02-03T00:42:14.397Z,4.60
2023-02-03T00:44:42.545Z,5.93
2023-02-03T00:47:11.195Z,4.30
2023-02-03T00:49:40.415Z,5.50
2023-02-03T00:52:08.626Z,4.80
2023-02-03T00:55:02.092Z,5.00
2023-02-03T00:57:33.451Z,4.10
2023-02-03T01:00:04.204Z,4.77
2023-02-03T01:02:32.564Z,5.90
2023-02-03T01:05:01.188Z,3.30
2023-02-03T01:07:32.423Z,4.90
2023-02-03T01:10:02.038Z,2.80
2023-02-03T01:12:32.032Z,3.87
2023-02-03T01:15:01.210Z,5.80
2023-02-03T01:17:30.351Z,3.57
2023-02-03T01:19:59.066Z,5.73
2023-02-03T01:22:27.800Z,4.03
2023-02-03T01:24:57.498Z,4.77
2023-02-03T01:27:27.474Z,5.27
2023-02-03T01:29:57.911Z,4.00
2023-02-03T01:32:28.103Z,4.50
2023-02-03T01:34:56.481Z,4.97
2023-02-03T01:37:25.372Z,4.37
2023-02-03T01:39:56.222Z,4.33
2023-02-03T01:42:25.383Z,3.30
2023-02-03T01:44:55.955Z,3.87
2023-02-03T01:47:29.813Z,5.27
2023-02-03T01:50:03.228Z,4.60
2023-02-03T01:52:33.373Z,3.83
2023-02-03T01:55:06.792Z,3.33
2023-02-03T01:57:45.680Z,3.93
2023-02-03T02:00:16.219Z,4.97
2023-02-03T02:02:48.480Z,2.50
2023-02-03T02:05:26.834Z,6.43
2023-02-03T02:08:01.563Z,2.77
2023-02-03T02:10:31.414Z,3.93
2023-02-03T02:13:04.272Z,5.80
2023-02-03T02:15:48.832Z,3.07
2023-02-03T02:18:37.314Z,5.53
2023-02-03T02:21:46.380Z,2.73
2023-02-03T02:24:55.096Z,2.73
2023-02-03T02:28:07.099Z,2.63
2023-02-03T02:30:51.549Z,3.53
2023-02-03T02:33:30.366Z,2.47
2023-02-03T02:36:10.617Z,3.10
2023-02-03T02:38:47.298Z,4.13
2023-02-03T02:41:25.394Z,3.63
2023-02-03T02:44:02.776Z,3.90
2023-02-03T02:46:35.454Z,3.10
2023-02-03T02:49:08.070Z,3.20
2023-02-03T02:51:40.792Z,5.97
2023-02-03T02:54:11.925Z,3.47
2023-02-03T02:56:44.432Z,3.13
2023-02-03T02:59:13.538Z,4.33
2023-02-03T03:01:48.443Z,4.77
2023-02-03T03:04:47.074Z,2.33
2023-02-03T03:07:20.969Z,6.17
2023-02-03T03:09:55.409Z,5.80
2023-02-03T03:12:33.746Z,3.77
2023-02-03T03:15:06.392Z,3.23
2023-02-03T03:17:42.467Z,3.90
2023-02-03T03:20:21.111Z,5.13
2023-02-03T03:22:53.454Z,9.77
2023-02-03T03:25:25.987Z,10.07
2023-02-03T03:27:58.533Z,11.20
2023-02-03T03:30:31.307Z,8.43
2023-02-03T03:33:02.264Z,4.83
2023-02-03T03:35:40.356Z,4.53
2023-02-03T03:38:15.407Z,4.00
2023-02-03T03:40:50.396Z,3.63
2023-02-03T03:43:23.268Z,4.40
2023-02-03T03:45:58.455Z,4.33
2023-02-03T03:48:31.262Z,3.70
2023-02-03T03:51:06.439Z,4.30
2023-02-03T03:53:39.256Z,7.40
2023-02-03T03:56:10.416Z,5.23
2023-02-03T03:58:45.596Z,4.57
2023-02-03T04:01:16.496Z,6.90
2023-02-03T04:03:49.414Z,6.33
2023-02-03T04:06:22.463Z,4.90
2023-02-03T04:08:50.631Z,6.53
2023-02-03T04:11:33.415Z,8.13
2023-02-03T04:14:01.653Z,4.83
2023-02-03T04:16:30.471Z,5.93
2023-02-03T04:18:58.743Z,5.60
2023-02-03T04:21:31.521Z,6.17
2023-02-03T04:24:00.306Z,4.50
2023-02-03T04:26:29.469Z,5.07
2023-02-03T04:28:57.583Z,5.23
2023-02-03T04:31:26.517Z,6.30
2023-02-03T04:33:54.708Z,6.17
2023-02-03T04:36:25.472Z,6.70
2023-02-03T04:38:55.416Z,6.20
2023-02-03T04:41:24.461Z,8.63
2023-02-03T04:43:52.808Z,7.77
2023-02-03T04:46:22.496Z,9.93
2023-02-03T04:48:53.139Z,8.67
2023-02-03T04:51:21.499Z,11.60
2023-02-03T04:53:49.692Z,17.07
2023-02-03T04:56:19.382Z,18.60
2023-02-03T04:58:49.161Z,22.10
2023-02-03T05:01:20.467Z,17.10
2023-02-03T05:03:48.818Z,13.13
2023-02-03T05:06:17.435Z,9.93
2023-02-03T05:08:45.599Z,8.77
2023-02-03T05:11:17.015Z,7.73
2023-02-03T05:13:49.787Z,7.43
2023-02-03T05:16:18.399Z,10.40
2023-02-03T05:18:46.696Z,9.70
2023-02-03T05:21:15.513Z,11.40
2023-02-03T05:23:49.376Z,8.53
2023-02-03T05:26:18.568Z,9.63
2023-02-03T05:28:46.826Z,9.00
2023-02-03T05:31:16.605Z,8.90
2023-02-03T05:33:44.903Z,9.63
2023-02-03T05:36:17.390Z,10.63
2023-02-03T05:38:46.097Z,9.80
2023-02-03T05:41:33.231Z,10.53
2023-02-03T05:44:02.450Z,10.10
2023-02-03T05:46:34.544Z,13.83
2023-02-03T05:49:02.932Z,9.87
2023-02-03T05:51:31.155Z,11.73
2023-02-03T05:54:00.288Z,11.13
2023-02-03T05:56:28.607Z,7.60
2023-02-03T05:58:57.310Z,8.33
2023-02-03T06:01:26.464Z,7.97
2023-02-03T06:03:56.128Z,9.83
2023-02-03T06:06:24.683Z,9.73
2023-02-03T06:08:56.382Z,8.37
2023-02-03T06:11:27.186Z,9.20
2023-02-03T06:13:58.654Z,9.63
2023-02-03T06:16:28.068Z,9.00
2023-02-03T06:18:59.763Z,8.00
2023-02-03T06:21:29.582Z,7.17
2023-02-03T06:23:57.923Z,9.80
2023-02-03T06:26:26.279Z,9.47
2023-02-03T06:28:54.447Z,7.83
2023-02-03T06:31:23.046Z,8.23
2023-02-03T06:33:51.352Z,6.17
2023-02-03T06:36:22.465Z,10.20
2023-02-03T06:38:52.280Z,8.27
2023-02-03T06:41:21.472Z,8.37
2023-02-03T06:43:49.650Z,8.47
2023-02-03T06:46:17.863Z,8.17
2023-02-03T06:48:46.080Z,9.27
2023-02-03T06:51:14.304Z,11.33
2023-02-03T06:53:44.479Z,10.57
2023-02-03T06:56:14.411Z,10.53
2023-02-03T06:58:42.850Z,8.80
2023-02-03T07:01:11.183Z,9.97
2023-02-03T07:03:39.529Z,8.57
2023-02-03T07:06:09.484Z,8.87
2023-02-03T07:08:41.418Z,9.70
2023-02-03T07:11:11.289Z,10.23
2023-02-03T07:13:39.468Z,10.50
2023-02-03T07:16:08.390Z,11.43
2023-02-03T07:18:46.984Z,11.33
2023-02-03T07:21:17.065Z,9.17
2023-02-03T07:23:47.516Z,8.87
2023-02-03T07:26:18.951Z,10.83
2023-02-03T07:28:47.320Z,11.20
2023-02-03T07:31:16.599Z,9.53
2023-02-03T07:33:48.375Z,9.47
2023-02-03T07:36:17.537Z,9.00
2023-02-03T07:38:45.711Z,8.10
2023-02-03T07:41:15.420Z,7.70
2023-02-03T07:43:50.575Z,8.47
2023-02-03T07:46:20.792Z,7.83
2023-02-03T07:48:49.351Z,9.60
2023-02-03T07:51:21.382Z,7.63
2023-02-03T07:53:49.841Z,9.07
2023-02-03T07:56:18.550Z,9.87
2023-02-03T07:58:48.041Z,9.83
2023-02-03T08:01:17.758Z,9.93
2023-02-03T08:03:46.035Z,9.93
2023-02-03T08:06:14.533Z,7.33
2023-02-03T08:08:43.706Z,11.63
2023-02-03T08:11:12.492Z,6.13
2023-02-03T08:13:40.741Z,8.30
2023-02-03T08:16:11.083Z,6.77
2023-02-03T08:18:39.287Z,7.67
2023-02-03T08:21:08.471Z,6.23
2023-02-03T08:23:40.304Z,7.97
2023-02-03T08:26:09.492Z,7.83
2023-02-03T08:28:40.538Z,9.13
2023-02-03T08:31:14.168Z,7.13
2023-02-03T08:33:43.379Z,6.67
2023-02-03T08:36:15.355Z,7.80
2023-02-03T08:38:44.345Z,6.57
2023-02-03T08:41:14.015Z,7.40
2023-02-03T08:43:43.359Z,6.40
2023-02-03T08:46:16.996Z,6.77
2023-02-03T08:48:45.247Z,4.20
2023-02-03T08:51:18.434Z,6.80
2023-02-03T08:53:47.133Z,5.70
2023-02-03T08:56:16.520Z,7.20
2023-02-03T08:58:46.734Z,6.03
2023-02-03T09:01:17.596Z,6.43
2023-02-03T09:03:46.347Z,7.93
2023-02-03T09:06:16.720Z,5.97
2023-02-03T09:08:46.146Z,5.20
2023-02-03T09:11:17.544Z,6.13
2023-02-03T09:13:46.469Z,4.63
2023-02-03T09:16:21.303Z,5.93
2023-02-03T09:18:49.740Z,8.93
2023-02-03T09:21:35.703Z,4.33
2023-02-03T09:24:11.199Z,7.37
2023-02-03T09:26:39.424Z,3.87
2023-02-03T09:29:07.930Z,4.73
2023-02-03T09:31:38.203Z,7.23
2023-02-03T09:34:06.517Z,4.90
2023-02-03T09:36:34.855Z,4.23
2023-02-03T09:39:05.805Z,2.83
2023-02-03T09:41:54.400Z,5.47
2023-02-03T09:44:27.403Z,5.23
2023-02-03T09:47:02.589Z,3.30
2023-02-03T09:49:39.666Z,4.47
2023-02-03T09:52:19.259Z,5.27
2023-02-03T09:54:55.836Z,6.13
2023-02-03T09:57:30.531Z,5.77
2023-02-03T10:00:00.849Z,7.87
2023-02-03T10:02:45.525Z,6.00
2023-02-03T10:05:21.598Z,5.77
2023-02-03T10:07:58.522Z,6.10
2023-02-03T10:10:35.639Z,3.87
2023-02-03T10:13:17.377Z,4.00
2023-02-03T10:16:06.015Z,3.23
2023-02-03T10:18:46.343Z,4.17
2023-02-03T10:21:19.516Z,9.03
2023-02-03T10:23:50.878Z,7.10
2023-02-03T10:26:22.750Z,3.73
2023-02-03T10:28:59.232Z,6.17
2023-02-03T10:31:29.191Z,4.17
2023-02-03T10:34:06.818Z,3.10
2023-02-03T10:36:47.577Z,3.23
2023-02-03T10:39:22.530Z,3.57
2023-02-03T10:41:51.167Z,4.33
2023-02-03T10:44:19.579Z,4.03
2023-02-03T10:46:51.587Z,2.87
2023-02-03T10:49:24.422Z,3.13
2023-02-03T10:51:55.905Z,2.70
2023-02-03T10:54:32.371Z,4.80
2023-02-03T10:57:05.725Z,4.13
2023-02-03T10:59:36.972Z,3.87
2023-02-03T11:02:11.028Z,2.33
2023-02-03T11:04:41.380Z,2.30
2023-02-03T11:07:25.690Z,2.40
2023-02-03T11:09:55.438Z,3.50
2023-02-03T11:12:23.714Z,3.20
2023-02-03T11:14:53.845Z,19.20
2023-02-03T11:17:27.021Z,8.17
2023-02-03T11:20:05.411Z,3.50
2023-02-03T11:22:38.523Z,3.00
2023-02-03T11:25:19.391Z,4.00
2023-02-03T11:27:48.187Z,2.33
2023-02-03T11:30:21.691Z,4.57
2023-02-03T11:32:51.540Z,2.30
2023-02-03T11:35:24.392Z,4.67
2023-02-03T11:37:58.473Z,3.93
2023-02-03T11:40:29.235Z,4.50
2023-02-03T11:43:06.803Z,4.07
2023-02-03T11:45:42.037Z,3.07
2023-02-03T11:48:27.743Z,6.17
2023-02-03T11:51:09.413Z,2.63
2023-02-03T11:53:57.225Z,5.57
2023-02-03T11:56:34.628Z,7.87
2023-02-03T11:59:30.172Z,3.63
2023-02-03T12:02:44.694Z,3.03
2023-02-03T12:05:40.694Z,3.30
2023-02-03T12:08:21.988Z,4.23
2023-02-03T12:11:02.287Z,2.80
2023-02-03T12:13:47.230Z,2.93
2023-02-03T12:16:29.642Z,3.23
2023-02-03T12:19:11.424Z,4.53
2023-02-03T12:21:49.223Z,2.73
2023-02-03T12:24:31.198Z,6.17
2023-02-03T12:27:15.870Z,4.30
2023-02-03T12:29:46.855Z,3.03
2023-02-03T12:32:25.610Z,2.83
2023-02-03T12:34:58.090Z,4.33
2023-02-03T12:37:36.775Z,7.23
2023-02-03T12:40:13.923Z,4.53
2023-02-03T12:42:52.698Z,4.50
2023-02-03T12:45:27.029Z,2.57
2023-02-03T12:48:02.133Z,4.03
2023-02-03T12:50:36.567Z,4.23
2023-02-03T12:53:14.448Z,4.73
2023-02-03T12:55:50.262Z,2.73
2023-02-03T12:58:23.977Z,6.03
2023-02-03T13:00:59.611Z,8.73
2023-02-03T13:03:34.429Z,4.40
2023-02-03T13:06:12.645Z,4.33
2023-02-03T13:08:47.766Z,2.53
2023-02-03T13:11:25.377Z,2.47
2023-02-03T13:13:57.074Z,7.33
2023-02-03T13:16:31.606Z,7.63
2023-02-03T13:19:03.352Z,4.07
2023-02-03T13:21:31.844Z,3.77
2023-02-03T13:24:00.549Z,4.63
2023-02-03T13:26:48.953Z,7.53
2023-02-03T13:29:34.137Z,4.93
2023-02-03T13:32:17.377Z,3.03
2023-02-03T13:35:16.568Z,4.70
2023-02-03T13:38:15.780Z,4.33
2023-02-03T13:40:55.216Z,6.20
2023-02-03T13:43:38.072Z,4.07
2023-02-03T13:46:14.106Z,4.87
2023-02-03T13:48:46.953Z,4.60
2023-02-03T13:51:19.506Z,5.60
2023-02-03T13:53:50.406Z,4.47
2023-02-03T13:56:22.762Z,4.67
2023-02-03T13:59:30.248Z,5.37
2023-02-03T14:02:41.805Z,5.87
2023-02-03T14:05:44.189Z,7.67
2023-02-03T14:08:55.669Z,7.73
2023-02-03T14:11:43.690Z,8.60
2023-02-03T14:14:47.503Z,7.77
2023-02-03T14:18:05.456Z,7.53
2023-02-03T14:20:57.521Z,6.83
2023-02-03T14:23:34.385Z,7.90
2023-02-03T14:26:04.727Z,10.83
2023-02-03T14:28:42.087Z,11.50
2023-02-03T14:31:19.053Z,10.13
2023-02-03T14:34:12.892Z,9.70
2023-02-03T14:36:55.842Z,9.83
2023-02-03T14:39:58.800Z,8.10
2023-02-03T14:43:12.162Z,6.27
2023-02-03T14:46:05.021Z,7.30
2023-02-03T14:48:52.181Z,6.53
2023-02-03T14:51:36.732Z,8.93
2023-02-03T14:54:22.536Z,9.27
2023-02-03T14:57:19.663Z,9.77
2023-02-03T14:59:51.675Z,8.00
2023-02-03T15:02:23.260Z,8.87
2023-02-03T15:05:33.483Z,8.73
2023-02-03T15:08:03.332Z,7.70
2023-02-03T15:10:43.190Z,8.60
2023-02-03T15:13:27.441Z,10.17
2023-02-03T15:15:57.948Z,9.77
2023-02-03T15:18:31.637Z,7.83
2023-02-03T15:21:03.732Z,8.63
2023-02-03T15:23:42.580Z,8.90
2023-02-03T15:26:14.658Z,9.97
2023-02-03T15:28:43.673Z,8.73
2023-02-03T15:31:20.798Z,9.77
2023-02-03T15:33:51.761Z,9.73
2023-02-03T15:36:24.666Z,11.87
2023-02-03T15:38:59.608Z,14.37
2023-02-03T15:41:28.635Z,12.47
2023-02-03T15:44:00.435Z,9.80
2023-02-03T15:46:36.755Z,8.13
2023-02-03T15:49:10.491Z,9.67
2023-02-03T15:51:44.959Z,12.57
2023-02-03T15:54:20.467Z,10.23
2023-02-03T15:56:55.617Z,7.93
2023-02-03T15:59:27.686Z,8.27
2023-02-03T16:01:59.429Z,7.43
2023-02-03T16:04:28.716Z,9.30
2023-02-03T16:06:59.501Z,7.37
2023-02-03T16:09:31.501Z,9.27
2023-02-03T16:12:15.644Z,8.17
2023-02-03T16:14:44.271Z,8.77
2023-02-03T16:17:29.107Z,9.20
2023-02-03T16:20:28.200Z,10.47
2023-02-03T16:23:08.474Z,9.33
2023-02-03T16:25:37.340Z,7.07
2023-02-03T16:28:34.287Z,8.33
2023-02-03T16:31:23.538Z,10.20
2023-02-03T16:34:09.439Z,12.50
2023-02-03T16:37:02.348Z,11.53
2023-02-03T16:39:49.380Z,10.00
2023-02-03T16:42:37.130Z,12.87
2023-02-03T16:45:29.249Z,11.80
2023-02-03T16:48:16.089Z,11.77
2023-02-03T16:50:52.510Z,12.13
2023-02-03T16:53:23.526Z,14.47
2023-02-03T16:55:55.057Z,11.53
2023-02-03T16:58:26.330Z,10.80
2023-02-03T17:00:55.943Z,14.03
2023-02-03T17:03:27.624Z,11.73
2023-02-03T17:05:57.670Z,15.47
2023-02-03T17:08:27.481Z,12.03
2023-02-03T17:10:57.661Z,13.23
2023-02-03T17:13:25.984Z,12.77
2023-02-03T17:15:55.503Z,13.60
2023-02-03T17:18:24.639Z,13.97
2023-02-03T17:20:53.314Z,15.17
2023-02-03T17:23:23.675Z,11.47
2023-02-03T17:25:52.070Z,14.50
2023-02-03T17:28:23.591Z,14.90
2023-02-03T17:30:57.870Z,13.20
2023-02-03T17:33:26.651Z,13.10
2023-02-03T17:36:06.100Z,12.90
2023-02-03T17:55:28.471Z,13.57
2023-02-03T17:57:57.476Z,13.30
2023-02-03T18:00:27.820Z,12.20
2023-02-03T18:02:57.549Z,12.90
2023-02-03T18:05:26.704Z,14.67
2023-02-03T18:08:03.018Z,16.10
2023-02-03T18:10:37.876Z,12.03
2023-02-03T18:13:08.239Z,14.80
2023-02-03T18:15:39.507Z,15.00
2023-02-03T18:18:08.072Z,14.13
2023-02-03T18:20:36.452Z,14.40
2023-02-03T18:23:04.706Z,17.80
2023-02-03T18:25:35.731Z,17.07
2023-02-03T18:28:04.030Z,18.23
2023-02-03T18:30:32.791Z,18.70
2023-02-03T18:33:03.872Z,17.63
2023-02-03T18:35:34.313Z,21.90
2023-02-03T18:38:02.480Z,21.13
2023-02-03T18:40:31.071Z,19.70
2023-02-03T18:42:59.489Z,24.80
2023-02-03T18:45:34.371Z,26.27
2023-02-03T18:48:04.056Z,22.93
2023-02-03T18:50:32.648Z,22.00
2023-02-03T18:53:00.977Z,19.57
2023-02-03T18:55:29.191Z,20.30
2023-02-03T18:58:00.158Z,21.10
2023-02-03T19:00:28.732Z,20.07
2023-02-03T19:03:00.419Z,21.57
2023-02-03T19:05:30.066Z,18.90
2023-02-03T19:07:58.594Z,20.57
2023-02-03T19:10:27.927Z,18.87
2023-02-03T19:12:56.366Z,20.40
2023-02-03T19:15:24.507Z,20.73
2023-02-03T19:17:53.338Z,17.90
2023-02-03T19:20:21.776Z,19.20
2023-02-03T19:22:51.344Z,20.90
2023-02-03T19:25:21.075Z,20.20
2023-02-03T19:27:49.253Z,18.63
2023-02-03T19:30:17.813Z,22.17
2023-02-03T19:32:45.936Z,31.93
2023-02-03T19:35:15.447Z,18.87
2023-02-03T19:37:43.653Z,17.67
2023-02-03T19:40:13.562Z,18.30
2023-02-03T19:42:42.382Z,16.50
2023-02-03T19:45:11.818Z,17.87
2023-02-03T19:47:40.020Z,16.73
2023-02-03T19:50:09.822Z,16.17
2023-02-03T19:52:38.133Z,17.07
2023-02-03T19:55:10.233Z,19.30
2023-02-03T19:57:40.705Z,18.63
2023-02-03T20:00:12.952Z,19.10
2023-02-03T20:02:46.748Z,18.70
2023-02-03T20:05:18.728Z,19.43
2023-02-03T20:07:47.026Z,20.07
2023-02-03T20:10:15.669Z,19.63
2023-02-03T20:12:46.227Z,23.60
2023-02-03T20:15:14.482Z,21.23
2023-02-03T20:17:47.190Z,19.17
2023-02-03T20:20:15.464Z,23.37
2023-02-03T20:22:43.928Z,21.13
2023-02-03T20:25:14.324Z,19.80
2023-02-03T20:27:44.030Z,23.37
2023-02-03T20:30:16.450Z,18.97
2023-02-03T20:32:44.773Z,20.53
2023-02-03T20:35:13.005Z,19.10
2023-02-03T20:37:43.647Z,20.37
2023-02-03T20:40:16.953Z,20.13
2023-02-03T20:42:50.263Z,18.80
2023-02-03T20:45:20.030Z,18.90
2023-02-03T20:47:48.799Z,18.67
2023-02-03T20:50:21.677Z,19.00
2023-02-03T20:52:52.831Z,20.67
2023-02-03T20:55:22.853Z,20.73
2023-02-03T20:57:54.836Z,23.07
2023-02-03T21:00:27.793Z,19.00
2023-02-03T21:03:14.398Z,18.83
2023-02-03T21:05:45.381Z,32.23
2023-02-03T21:08:14.952Z,25.53
2023-02-03T21:10:44.103Z,20.33
2023-02-03T21:13:21.780Z,20.23
2023-02-03T21:15:51.509Z,19.27
2023-02-03T21:18:32.796Z,21.80
2023-02-03T21:21:01.657Z,23.93
2023-02-03T21:23:40.036Z,23.70
2023-02-03T21:26:20.287Z,19.97
2023-02-03T21:28:52.009Z,20.33
2023-02-03T21:31:45.992Z,21.80
2023-02-03T21:34:26.824Z,22.70
2023-02-03T21:36:55.870Z,20.30
2023-02-03T21:39:28.600Z,31.90
2023-02-03T21:41:57.261Z,41.07
2023-02-03T21:44:31.338Z,27.40
2023-02-03T21:47:04.170Z,23.37
2023-02-03T21:49:36.833Z,22.23
2023-02-03T21:52:05.150Z,20.17
2023-02-03T21:54:41.749Z,18.00
2023-02-03T21:57:15.830Z,18.67
2023-02-03T21:59:46.992Z,17.57
2023-02-03T22:02:47.609Z,17.90
2023-02-03T22:05:17.236Z,15.50
2023-02-03T22:07:49.258Z,17.53
2023-02-03T22:10:18.650Z,16.57
2023-02-03T22:12:47.759Z,17.47
2023-02-03T22:15:17.434Z,17.03
2023-02-03T22:17:48.261Z,16.63
2023-02-03T22:20:17.379Z,14.40
2023-02-03T22:22:45.620Z,16.30
2023-02-03T22:25:13.893Z,15.37
2023-02-03T22:27:43.364Z,15.00
2023-02-03T22:30:19.733Z,14.57
2023-02-03T22:32:50.390Z,16.20
2023-02-03T22:35:18.808Z,15.97
2023-02-03T22:37:46.979Z,15.87
2023-02-03T22:40:16.059Z,13.60
2023-02-03T22:42:44.592Z,13.83
2023-02-03T22:45:13.565Z,14.93
2023-02-03T22:47:43.735Z,12.67
2023-02-03T22:50:13.220Z,13.97
2023-02-03T22:52:41.803Z,16.20
2023-02-03T22:55:11.734Z,11.63
2023-02-03T22:57:42.345Z,13.37
2023-02-03T23:00:14.382Z,13.50
2023-02-03T23:02:43.940Z,15.17
2023-02-03T23:05:12.156Z,16.67
2023-02-03T23:07:41.771Z,13.83
2023-02-03T23:10:12.148Z,13.27
2023-02-03T23:12:41.473Z,13.63
2023-02-03T23:15:10.755Z,12.93
2023-02-03T23:17:39.161Z,11.70
2023-02-03T23:20:12.733Z,11.13
2023-02-03T23:22:44.857Z,12.50
2023-02-03T23:25:13.831Z,11.67
2023-02-03T23:27:42.017Z,11.43
2023-02-03T23:30:12.765Z,14.53
2023-02-03T23:32:41.794Z,10.93
2023-02-03T23:35:29.205Z,24.93
2023-02-03T23:38:00.806Z,11.33
2023-02-03T23:40:30.103Z,10.70
2023-02-03T23:42:58.602Z,12.33
2023-02-03T23:45:27.772Z,9.00
2023-02-03T23:47:55.998Z,8.83
2023-02-03T23:50:29.666Z,12.03
2023-02-03T23:53:01.385Z,9.23
2023-02-03T23:55:31.604Z,9.43
2023-02-03T23:58:00.475Z,9.50
